O' Neill, Nebraska
Current Conditions -  °F | °C
As of 6:35 PM on Monday 24 Nov 2014 (Local Time) from KONL Reporting Station
Clear Clear  
Wind Chill: 16°   Ceiling: Unl
Heat Index: 25°   Visibility: 10mi
Dew Point:   Wind: 8mph
Humidity: 50%   Direction: 310°NW
Pressure: 30.02"   Gusts: NA
Location:  42.6164°N, 98.6183°W
Report Text: KONL 250035Z AUTO 31007KT 10SM CLR M04/M13 A3002 RMK AO2 T10391131
Loading
Personal Weather Stations






























Interactive Weather Map New forecast layout! Learn more

10-Day Weather Forecast

Advertisements
Track Severe Weather on mobile